sensor_id;sensor_type;location;lat;lon;timestamp;temperature;humidity
21612;DHT22;47005;52.292;13.452;2022-07-03T00:01:10;19.20;80.20
21612;DHT22;47005;52.292;13.452;2022-07-03T00:03:36;19.20;80.30
21612;DHT22;47005;52.292;13.452;2022-07-03T00:06:02;19.20;80.40
21612;DHT22;47005;52.292;13.452;2022-07-03T00:08:27;19.20;80.50
21612;DHT22;47005;52.292;13.452;2022-07-03T00:10:53;19.20;80.60
21612;DHT22;47005;52.292;13.452;2022-07-03T00:13:18;19.20;80.60
21612;DHT22;47005;52.292;13.452;2022-07-03T00:15:44;19.10;80.80
21612;DHT22;47005;52.292;13.452;2022-07-03T00:18:10;19.10;80.80
21612;DHT22;47005;52.292;13.452;2022-07-03T00:20:42;19.10;80.80
21612;DHT22;47005;52.292;13.452;2022-07-03T00:23:10;19.10;81.00
21612;DHT22;47005;52.292;13.452;2022-07-03T00:25:40;19.10;81.20
21612;DHT22;47005;52.292;13.452;2022-07-03T00:28:06;19.10;81.20
21612;DHT22;47005;52.292;13.452;2022-07-03T00:30:34;19.00;81.30
21612;DHT22;47005;52.292;13.452;2022-07-03T00:33:02;19.00;81.50
21612;DHT22;47005;52.292;13.452;2022-07-03T00:35:33;19.00;81.70
21612;DHT22;47005;52.292;13.452;2022-07-03T00:38:00;19.00;81.80
21612;DHT22;47005;52.292;13.452;2022-07-03T00:40:26;19.00;81.80
21612;DHT22;47005;52.292;13.452;2022-07-03T00:42:51;18.90;81.90
21612;DHT22;47005;52.292;13.452;2022-07-03T00:45:20;18.90;82.10
21612;DHT22;47005;52.292;13.452;2022-07-03T00:47:46;18.90;82.00
21612;DHT22;47005;52.292;13.452;2022-07-03T00:50:12;18.90;82.20
21612;DHT22;47005;52.292;13.452;2022-07-03T00:52:38;18.80;82.30
21612;DHT22;47005;52.292;13.452;2022-07-03T00:55:08;18.80;82.30
21612;DHT22;47005;52.292;13.452;2022-07-03T00:57:36;18.80;82.50
21612;DHT22;47005;52.292;13.452;2022-07-03T01:00:05;18.80;82.40
21612;DHT22;47005;52.292;13.452;2022-07-03T01:05:26;18.70;82.70
21612;DHT22;47005;52.292;13.452;2022-07-03T01:13:14;18.70;82.70
21612;DHT22;47005;52.292;13.452;2022-07-03T01:16:04;18.70;82.90
21612;DHT22;47005;52.292;13.452;2022-07-03T01:18:59;18.60;82.80
21612;DHT22;47005;52.292;13.452;2022-07-03T01:27:07;18.60;82.80
21612;DHT22;47005;52.292;13.452;2022-07-03T01:32:25;18.50;83.00
21612;DHT22;47005;52.292;13.452;2022-07-03T01:34:53;18.50;82.90
21612;DHT22;47005;52.292;13.452;2022-07-03T01:37:23;18.50;82.90
21612;DHT22;47005;52.292;13.452;2022-07-03T01:39:53;18.50;83.00
21612;DHT22;47005;52.292;13.452;2022-07-03T01:42:23;18.50;82.90
21612;DHT22;47005;52.292;13.452;2022-07-03T01:44:51;18.50;83.00
21612;DHT22;47005;52.292;13.452;2022-07-03T01:47:19;18.50;83.00
21612;DHT22;47005;52.292;13.452;2022-07-03T01:49:48;18.50;83.20
21612;DHT22;47005;52.292;13.452;2022-07-03T01:52:15;18.40;83.30
21612;DHT22;47005;52.292;13.452;2022-07-03T01:54:42;18.40;83.50
21612;DHT22;47005;52.292;13.452;2022-07-03T01:57:10;18.40;83.40
21612;DHT22;47005;52.292;13.452;2022-07-03T01:59:36;18.40;83.60
21612;DHT22;47005;52.292;13.452;2022-07-03T02:02:25;18.40;83.50
21612;DHT22;47005;52.292;13.452;2022-07-03T02:05:02;18.30;83.50
21612;DHT22;47005;52.292;13.452;2022-07-03T02:07:42;18.30;83.70
21612;DHT22;47005;52.292;13.452;2022-07-03T02:10:16;18.30;83.60
21612;DHT22;47005;52.292;13.452;2022-07-03T02:15:09;18.30;84.10
21612;DHT22;47005;52.292;13.452;2022-07-03T02:17:38;18.20;83.90
21612;DHT22;47005;52.292;13.452;2022-07-03T02:20:06;18.30;84.10
21612;DHT22;47005;52.292;13.452;2022-07-03T02:22:50;18.20;84.10
21612;DHT22;47005;52.292;13.452;2022-07-03T02:25:26;18.20;84.40
21612;DHT22;47005;52.292;13.452;2022-07-03T02:28:14;18.10;84.10
21612;DHT22;47005;52.292;13.452;2022-07-03T02:30:43;18.10;84.20
21612;DHT22;47005;52.292;13.452;2022-07-03T02:33:19;18.10;84.60
21612;DHT22;47005;52.292;13.452;2022-07-03T02:35:47;18.10;84.70
21612;DHT22;47005;52.292;13.452;2022-07-03T02:38:18;18.10;84.70
21612;DHT22;47005;52.292;13.452;2022-07-03T02:41:10;18.10;84.80
21612;DHT22;47005;52.292;13.452;2022-07-03T02:43:58;18.10;85.20
21612;DHT22;47005;52.292;13.452;2022-07-03T02:46:49;18.00;84.90
21612;DHT22;47005;52.292;13.452;2022-07-03T02:57:39;17.90;85.20
21612;DHT22;47005;52.292;13.452;2022-07-03T03:00:08;17.90;85.30
21612;DHT22;47005;52.292;13.452;2022-07-03T03:05:16;17.90;85.90
21612;DHT22;47005;52.292;13.452;2022-07-03T03:10:12;17.80;86.10
21612;DHT22;47005;52.292;13.452;2022-07-03T03:12:41;17.90;86.60
21612;DHT22;47005;52.292;13.452;2022-07-03T03:15:12;17.80;86.70
21612;DHT22;47005;52.292;13.452;2022-07-03T03:17:50;17.80;87.10
21612;DHT22;47005;52.292;13.452;2022-07-03T03:20:17;17.80;86.30
21612;DHT22;47005;52.292;13.452;2022-07-03T03:25:44;17.70;86.60
21612;DHT22;47005;52.292;13.452;2022-07-03T03:28:10;17.70;87.40
21612;DHT22;47005;52.292;13.452;2022-07-03T03:30:36;17.70;86.60
21612;DHT22;47005;52.292;13.452;2022-07-03T03:33:03;17.70;86.90
21612;DHT22;47005;52.292;13.452;2022-07-03T03:35:28;17.70;86.90
21612;DHT22;47005;52.292;13.452;2022-07-03T03:37:54;17.70;87.00
21612;DHT22;47005;52.292;13.452;2022-07-03T03:40:20;17.70;87.20
21612;DHT22;47005;52.292;13.452;2022-07-03T03:42:46;17.70;87.50
21612;DHT22;47005;52.292;13.452;2022-07-03T03:45:11;17.60;87.40
21612;DHT22;47005;52.292;13.452;2022-07-03T03:47:37;17.70;87.50
21612;DHT22;47005;52.292;13.452;2022-07-03T03:50:03;17.60;87.60
21612;DHT22;47005;52.292;13.452;2022-07-03T03:52:29;17.70;87.80
21612;DHT22;47005;52.292;13.452;2022-07-03T03:54:55;17.60;87.90
21612;DHT22;47005;52.292;13.452;2022-07-03T03:57:23;17.60;87.60
21612;DHT22;47005;52.292;13.452;2022-07-03T03:59:49;17.70;88.10
21612;DHT22;47005;52.292;13.452;2022-07-03T04:02:15;17.60;88.20
21612;DHT22;47005;52.292;13.452;2022-07-03T04:04:41;17.60;88.60
21612;DHT22;47005;52.292;13.452;2022-07-03T04:07:06;17.60;88.80
21612;DHT22;47005;52.292;13.452;2022-07-03T04:09:32;17.70;88.10
21612;DHT22;47005;52.292;13.452;2022-07-03T04:11:58;17.70;88.10
21612;DHT22;47005;52.292;13.452;2022-07-03T04:14:24;17.70;88.20
21612;DHT22;47005;52.292;13.452;2022-07-03T04:16:49;17.70;89.30
21612;DHT22;47005;52.292;13.452;2022-07-03T04:19:15;17.70;88.40
21612;DHT22;47005;52.292;13.452;2022-07-03T04:21:41;17.70;88.80
21612;DHT22;47005;52.292;13.452;2022-07-03T04:24:07;17.70;88.90
21612;DHT22;47005;52.292;13.452;2022-07-03T04:26:33;17.70;89.10
21612;DHT22;47005;52.292;13.452;2022-07-03T04:28:59;17.80;89.80
21612;DHT22;47005;52.292;13.452;2022-07-03T04:31:24;17.80;89.30
21612;DHT22;47005;52.292;13.452;2022-07-03T04:33:50;17.80;89.00
21612;DHT22;47005;52.292;13.452;2022-07-03T04:36:16;17.80;89.20
21612;DHT22;47005;52.292;13.452;2022-07-03T04:38:42;17.80;89.80
21612;DHT22;47005;52.292;13.452;2022-07-03T04:41:08;17.80;89.20
21612;DHT22;47005;52.292;13.452;2022-07-03T04:43:34;17.80;89.50
21612;DHT22;47005;52.292;13.452;2022-07-03T04:46:00;17.90;89.90
21612;DHT22;47005;52.292;13.452;2022-07-03T04:48:30;17.90;90.10
21612;DHT22;47005;52.292;13.452;2022-07-03T04:50:57;17.90;90.10
21612;DHT22;47005;52.292;13.452;2022-07-03T04:53:22;17.90;90.50
21612;DHT22;47005;52.292;13.452;2022-07-03T04:55:48;17.90;90.50
21612;DHT22;47005;52.292;13.452;2022-07-03T04:58:14;17.90;90.30
21612;DHT22;47005;52.292;13.452;2022-07-03T05:00:39;18.00;90.40
21612;DHT22;47005;52.292;13.452;2022-07-03T05:03:06;17.90;90.30
21612;DHT22;47005;52.292;13.452;2022-07-03T05:05:32;18.00;90.80
21612;DHT22;47005;52.292;13.452;2022-07-03T05:07:58;18.00;90.50
21612;DHT22;47005;52.292;13.452;2022-07-03T05:10:24;18.00;90.40
21612;DHT22;47005;52.292;13.452;2022-07-03T05:12:50;18.10;90.80
21612;DHT22;47005;52.292;13.452;2022-07-03T05:15:15;18.10;90.80
21612;DHT22;47005;52.292;13.452;2022-07-03T05:17:41;18.10;90.70
21612;DHT22;47005;52.292;13.452;2022-07-03T05:20:07;18.10;91.10
21612;DHT22;47005;52.292;13.452;2022-07-03T05:22:55;18.20;90.80
21612;DHT22;47005;52.292;13.452;2022-07-03T05:25:21;18.20;90.90
21612;DHT22;47005;52.292;13.452;2022-07-03T05:27:47;18.20;90.90
21612;DHT22;47005;52.292;13.452;2022-07-03T05:30:15;18.30;90.70
21612;DHT22;47005;52.292;13.452;2022-07-03T05:32:41;18.30;91.40
21612;DHT22;47005;52.292;13.452;2022-07-03T05:35:07;18.30;91.00
21612;DHT22;47005;52.292;13.452;2022-07-03T05:37:33;18.30;91.00
21612;DHT22;47005;52.292;13.452;2022-07-03T05:39:58;18.40;90.80
21612;DHT22;47005;52.292;13.452;2022-07-03T05:42:24;18.40;91.10
21612;DHT22;47005;52.292;13.452;2022-07-03T05:44:50;18.50;91.20
21612;DHT22;47005;52.292;13.452;2022-07-03T05:47:15;18.50;90.80
21612;DHT22;47005;52.292;13.452;2022-07-03T05:49:41;18.60;90.70
21612;DHT22;47005;52.292;13.452;2022-07-03T05:52:07;18.60;91.20
21612;DHT22;47005;52.292;13.452;2022-07-03T05:54:32;18.70;90.80
21612;DHT22;47005;52.292;13.452;2022-07-03T05:56:58;18.70;91.20
21612;DHT22;47005;52.292;13.452;2022-07-03T05:59:24;18.80;91.30
21612;DHT22;47005;52.292;13.452;2022-07-03T06:01:49;18.80;91.30
21612;DHT22;47005;52.292;13.452;2022-07-03T06:04:15;18.80;91.50
21612;DHT22;47005;52.292;13.452;2022-07-03T06:06:41;18.90;91.40
21612;DHT22;47005;52.292;13.452;2022-07-03T06:09:07;18.90;91.10
21612;DHT22;47005;52.292;13.452;2022-07-03T06:11:33;19.00;91.00
21612;DHT22;47005;52.292;13.452;2022-07-03T06:13:58;19.00;90.90
21612;DHT22;47005;52.292;13.452;2022-07-03T06:16:24;19.10;91.00
21612;DHT22;47005;52.292;13.452;2022-07-03T06:18:49;19.10;90.80
21612;DHT22;47005;52.292;13.452;2022-07-03T06:21:15;19.20;90.70
21612;DHT22;47005;52.292;13.452;2022-07-03T06:23:41;19.20;90.60
21612;DHT22;47005;52.292;13.452;2022-07-03T06:26:07;19.30;90.60
21612;DHT22;47005;52.292;13.452;2022-07-03T06:28:32;19.30;90.60
21612;DHT22;47005;52.292;13.452;2022-07-03T06:30:58;19.40;90.30
21612;DHT22;47005;52.292;13.452;2022-07-03T06:33:23;19.40;90.20
21612;DHT22;47005;52.292;13.452;2022-07-03T06:35:49;19.50;89.90
21612;DHT22;47005;52.292;13.452;2022-07-03T06:38:15;19.50;90.00
21612;DHT22;47005;52.292;13.452;2022-07-03T06:40:40;19.60;89.20
21612;DHT22;47005;52.292;13.452;2022-07-03T06:43:06;19.70;89.30
21612;DHT22;47005;52.292;13.452;2022-07-03T06:45:32;19.70;89.00
21612;DHT22;47005;52.292;13.452;2022-07-03T06:47:57;19.80;89.20
21612;DHT22;47005;52.292;13.452;2022-07-03T06:50:23;19.80;89.10
21612;DHT22;47005;52.292;13.452;2022-07-03T06:52:48;19.90;88.80
21612;DHT22;47005;52.292;13.452;2022-07-03T06:55:14;19.90;88.60
21612;DHT22;47005;52.292;13.452;2022-07-03T06:57:40;20.00;88.70
21612;DHT22;47005;52.292;13.452;2022-07-03T07:00:06;20.00;88.90
21612;DHT22;47005;52.292;13.452;2022-07-03T07:02:32;20.10;88.80
21612;DHT22;47005;52.292;13.452;2022-07-03T07:04:57;20.20;89.50
21612;DHT22;47005;52.292;13.452;2022-07-03T07:07:23;20.20;88.70
21612;DHT22;47005;52.292;13.452;2022-07-03T07:09:48;20.30;89.00
21612;DHT22;47005;52.292;13.452;2022-07-03T07:12:14;20.30;89.30
21612;DHT22;47005;52.292;13.452;2022-07-03T07:14:40;20.30;89.30
21612;DHT22;47005;52.292;13.452;2022-07-03T07:17:05;20.40;88.60
21612;DHT22;47005;52.292;13.452;2022-07-03T07:19:31;20.40;88.10
21612;DHT22;47005;52.292;13.452;2022-07-03T07:21:57;20.50;88.20
21612;DHT22;47005;52.292;13.452;2022-07-03T07:24:22;20.60;88.00
21612;DHT22;47005;52.292;13.452;2022-07-03T07:26:48;20.60;88.30
21612;DHT22;47005;52.292;13.452;2022-07-03T07:29:14;20.70;88.00
21612;DHT22;47005;52.292;13.452;2022-07-03T07:31:39;20.70;88.90
21612;DHT22;47005;52.292;13.452;2022-07-03T07:34:05;20.70;88.00
21612;DHT22;47005;52.292;13.452;2022-07-03T07:36:31;20.70;87.70
21612;DHT22;47005;52.292;13.452;2022-07-03T07:38:57;20.80;88.30
21612;DHT22;47005;52.292;13.452;2022-07-03T07:41:23;20.90;89.40
21612;DHT22;47005;52.292;13.452;2022-07-03T07:43:48;20.90;88.90
21612;DHT22;47005;52.292;13.452;2022-07-03T07:46:14;20.90;89.00
21612;DHT22;47005;52.292;13.452;2022-07-03T07:48:40;21.00;88.00
21612;DHT22;47005;52.292;13.452;2022-07-03T07:51:06;21.00;87.90
21612;DHT22;47005;52.292;13.452;2022-07-03T07:53:32;21.10;87.10
21612;DHT22;47005;52.292;13.452;2022-07-03T07:55:58;21.10;86.30
21612;DHT22;47005;52.292;13.452;2022-07-03T07:58:23;21.20;85.70
21612;DHT22;47005;52.292;13.452;2022-07-03T08:00:49;21.20;86.10
21612;DHT22;47005;52.292;13.452;2022-07-03T08:03:33;21.30;85.90
21612;DHT22;47005;52.292;13.452;2022-07-03T08:06:18;21.30;85.00
21612;DHT22;47005;52.292;13.452;2022-07-03T08:08:44;21.40;85.30
21612;DHT22;47005;52.292;13.452;2022-07-03T08:11:09;21.40;84.60
21612;DHT22;47005;52.292;13.452;2022-07-03T08:13:35;21.50;84.70
21612;DHT22;47005;52.292;13.452;2022-07-03T08:16:00;21.50;84.70
21612;DHT22;47005;52.292;13.452;2022-07-03T08:18:26;21.50;83.70
21612;DHT22;47005;52.292;13.452;2022-07-03T08:20:52;21.60;83.00
21612;DHT22;47005;52.292;13.452;2022-07-03T08:23:17;21.60;83.30
21612;DHT22;47005;52.292;13.452;2022-07-03T08:25:43;21.70;82.70
21612;DHT22;47005;52.292;13.452;2022-07-03T08:28:08;21.70;82.80
21612;DHT22;47005;52.292;13.452;2022-07-03T08:30:34;21.80;84.10
21612;DHT22;47005;52.292;13.452;2022-07-03T08:33:00;21.80;83.10
21612;DHT22;47005;52.292;13.452;2022-07-03T08:35:27;21.80;81.70
21612;DHT22;47005;52.292;13.452;2022-07-03T08:37:53;21.90;81.40
21612;DHT22;47005;52.292;13.452;2022-07-03T08:40:20;21.90;81.80
21612;DHT22;47005;52.292;13.452;2022-07-03T08:45:16;22.00;82.20
21612;DHT22;47005;52.292;13.452;2022-07-03T08:47:47;22.00;82.70
21612;DHT22;47005;52.292;13.452;2022-07-03T08:50:19;22.00;82.00
21612;DHT22;47005;52.292;13.452;2022-07-03T08:52:46;22.10;81.10
21612;DHT22;47005;52.292;13.452;2022-07-03T08:55:13;22.10;80.00
21612;DHT22;47005;52.292;13.452;2022-07-03T08:57:40;22.10;81.80
21612;DHT22;47005;52.292;13.452;2022-07-03T09:00:08;22.20;81.80
21612;DHT22;47005;52.292;13.452;2022-07-03T09:02:34;22.20;81.70
21612;DHT22;47005;52.292;13.452;2022-07-03T09:05:01;22.30;82.20
21612;DHT22;47005;52.292;13.452;2022-07-03T09:07:31;22.30;81.80
21612;DHT22;47005;52.292;13.452;2022-07-03T09:09:59;22.40;80.60
21612;DHT22;47005;52.292;13.452;2022-07-03T09:12:25;22.40;80.30
21612;DHT22;47005;52.292;13.452;2022-07-03T09:14:51;22.40;78.80
21612;DHT22;47005;52.292;13.452;2022-07-03T09:17:17;22.50;80.00
21612;DHT22;47005;52.292;13.452;2022-07-03T09:19:44;22.40;79.30
21612;DHT22;47005;52.292;13.452;2022-07-03T09:22:32;22.50;79.50
21612;DHT22;47005;52.292;13.452;2022-07-03T09:27:36;22.60;79.70
21612;DHT22;47005;52.292;13.452;2022-07-03T09:30:07;22.60;78.30
21612;DHT22;47005;52.292;13.452;2022-07-03T09:32:42;22.70;78.90
21612;DHT22;47005;52.292;13.452;2022-07-03T09:35:21;22.70;79.30
21612;DHT22;47005;52.292;13.452;2022-07-03T09:38:08;22.70;78.70
21612;DHT22;47005;52.292;13.452;2022-07-03T09:40:54;22.70;81.40
21612;DHT22;47005;52.292;13.452;2022-07-03T09:43:30;22.80;80.00
21612;DHT22;47005;52.292;13.452;2022-07-03T09:46:00;22.80;79.20
21612;DHT22;47005;52.292;13.452;2022-07-03T09:48:36;22.80;79.50
21612;DHT22;47005;52.292;13.452;2022-07-03T09:53:51;22.80;80.20
21612;DHT22;47005;52.292;13.452;2022-07-03T09:56:28;22.90;80.50
21612;DHT22;47005;52.292;13.452;2022-07-03T10:01:45;22.90;79.50
21612;DHT22;47005;52.292;13.452;2022-07-03T10:04:21;23.00;79.00
21612;DHT22;47005;52.292;13.452;2022-07-03T10:07:00;23.00;80.00
21612;DHT22;47005;52.292;13.452;2022-07-03T10:09:30;23.00;79.80
21612;DHT22;47005;52.292;13.452;2022-07-03T10:11:57;23.10;79.60
21612;DHT22;47005;52.292;13.452;2022-07-03T10:14:26;23.00;79.50
21612;DHT22;47005;52.292;13.452;2022-07-03T10:16:52;23.10;80.10
21612;DHT22;47005;52.292;13.452;2022-07-03T10:19:20;23.10;79.90
21612;DHT22;47005;52.292;13.452;2022-07-03T10:21:56;23.10;80.50
21612;DHT22;47005;52.292;13.452;2022-07-03T10:24:23;23.10;78.50
21612;DHT22;47005;52.292;13.452;2022-07-03T10:26:51;23.20;76.50
21612;DHT22;47005;52.292;13.452;2022-07-03T10:29:17;23.20;76.80
21612;DHT22;47005;52.292;13.452;2022-07-03T10:31:46;23.30;77.30
21612;DHT22;47005;52.292;13.452;2022-07-03T10:34:16;23.30;79.40
21612;DHT22;47005;52.292;13.452;2022-07-03T10:36:42;23.30;76.10
21612;DHT22;47005;52.292;13.452;2022-07-03T10:39:13;23.40;78.20
21612;DHT22;47005;52.292;13.452;2022-07-03T10:41:45;23.40;77.30
21612;DHT22;47005;52.292;13.452;2022-07-03T10:44:30;23.40;73.50
21612;DHT22;47005;52.292;13.452;2022-07-03T10:47:36;23.40;76.20
21612;DHT22;47005;52.292;13.452;2022-07-03T10:50:07;23.40;76.20
21612;DHT22;47005;52.292;13.452;2022-07-03T10:52:33;23.50;76.40
21612;DHT22;47005;52.292;13.452;2022-07-03T10:54:58;23.50;75.10
21612;DHT22;47005;52.292;13.452;2022-07-03T10:57:25;23.50;75.50
21612;DHT22;47005;52.292;13.452;2022-07-03T11:02:37;23.50;77.30
21612;DHT22;47005;52.292;13.452;2022-07-03T11:05:16;23.60;76.80
21612;DHT22;47005;52.292;13.452;2022-07-03T11:20:34;23.80;74.60
21612;DHT22;47005;52.292;13.452;2022-07-03T11:23:16;23.80;73.90
21612;DHT22;47005;52.292;13.452;2022-07-03T11:25:47;23.90;75.00
21612;DHT22;47005;52.292;13.452;2022-07-03T11:33:49;24.00;74.70
21612;DHT22;47005;52.292;13.452;2022-07-03T11:39:24;24.00;72.70
21612;DHT22;47005;52.292;13.452;2022-07-03T11:41:42;24.00;72.90
21612;DHT22;47005;52.292;13.452;2022-07-03T11:44:10;24.10;73.20
21612;DHT22;47005;52.292;13.452;2022-07-03T11:46:39;24.10;71.80
21612;DHT22;47005;52.292;13.452;2022-07-03T11:49:09;24.10;73.20
21612;DHT22;47005;52.292;13.452;2022-07-03T11:51:36;24.20;73.50
21612;DHT22;47005;52.292;13.452;2022-07-03T11:54:02;24.20;71.90
21612;DHT22;47005;52.292;13.452;2022-07-03T11:56:29;24.20;71.00
21612;DHT22;47005;52.292;13.452;2022-07-03T11:58:57;24.30;71.30
21612;DHT22;47005;52.292;13.452;2022-07-03T12:14:48;24.70;71.60
21612;DHT22;47005;52.292;13.452;2022-07-03T12:17:17;24.80;69.10
21612;DHT22;47005;52.292;13.452;2022-07-03T12:19:50;24.80;69.00
21612;DHT22;47005;52.292;13.452;2022-07-03T12:22:29;24.80;70.60
21612;DHT22;47005;52.292;13.452;2022-07-03T12:27:27;24.90;69.70
21612;DHT22;47005;52.292;13.452;2022-07-03T12:29:53;24.90;69.40
21612;DHT22;47005;52.292;13.452;2022-07-03T12:32:19;24.90;69.40
21612;DHT22;47005;52.292;13.452;2022-07-03T12:34:45;24.90;69.50
21612;DHT22;47005;52.292;13.452;2022-07-03T12:37:11;24.90;68.40
21612;DHT22;47005;52.292;13.452;2022-07-03T12:39:46;24.90;65.60
21612;DHT22;47005;52.292;13.452;2022-07-03T12:42:19;24.90;68.30
21612;DHT22;47005;52.292;13.452;2022-07-03T12:45:02;24.90;69.30
21612;DHT22;47005;52.292;13.452;2022-07-03T12:47:29;24.80;69.50
21612;DHT22;47005;52.292;13.452;2022-07-03T12:50:00;24.80;69.70
21612;DHT22;47005;52.292;13.452;2022-07-03T12:52:27;24.80;70.50
21612;DHT22;47005;52.292;13.452;2022-07-03T12:54:54;24.80;71.10
21612;DHT22;47005;52.292;13.452;2022-07-03T12:57:22;24.80;70.80
21612;DHT22;47005;52.292;13.452;2022-07-03T13:00:08;24.80;70.60
21612;DHT22;47005;52.292;13.452;2022-07-03T13:02:38;24.80;67.90
21612;DHT22;47005;52.292;13.452;2022-07-03T13:05:21;24.80;69.50
21612;DHT22;47005;52.292;13.452;2022-07-03T13:07:53;24.80;70.00
21612;DHT22;47005;52.292;13.452;2022-07-03T13:10:20;24.90;69.40
21612;DHT22;47005;52.292;13.452;2022-07-03T13:12:51;24.90;68.70
21612;DHT22;47005;52.292;13.452;2022-07-03T13:15:17;24.90;67.40
21612;DHT22;47005;52.292;13.452;2022-07-03T13:20:37;25.00;68.60
21612;DHT22;47005;52.292;13.452;2022-07-03T13:23:04;25.10;68.30
21612;DHT22;47005;52.292;13.452;2022-07-03T13:25:32;25.20;67.80
21612;DHT22;47005;52.292;13.452;2022-07-03T13:28:09;25.30;69.00
21612;DHT22;47005;52.292;13.452;2022-07-03T13:30:35;25.30;68.20
21612;DHT22;47005;52.292;13.452;2022-07-03T13:33:02;25.40;68.00
21612;DHT22;47005;52.292;13.452;2022-07-03T13:35:28;25.40;69.20
21612;DHT22;47005;52.292;13.452;2022-07-03T13:37:54;25.40;69.00
21612;DHT22;47005;52.292;13.452;2022-07-03T13:40:20;25.40;70.00
21612;DHT22;47005;52.292;13.452;2022-07-03T13:42:45;25.40;69.00
21612;DHT22;47005;52.292;13.452;2022-07-03T13:45:11;25.40;69.40
21612;DHT22;47005;52.292;13.452;2022-07-03T13:47:36;25.40;69.60
21612;DHT22;47005;52.292;13.452;2022-07-03T13:50:03;25.30;69.00
21612;DHT22;47005;52.292;13.452;2022-07-03T13:52:29;25.30;69.90
21612;DHT22;47005;52.292;13.452;2022-07-03T13:54:54;25.30;70.20
21612;DHT22;47005;52.292;13.452;2022-07-03T13:57:20;25.30;70.50
21612;DHT22;47005;52.292;13.452;2022-07-03T13:59:46;25.30;69.80
21612;DHT22;47005;52.292;13.452;2022-07-03T14:02:12;25.30;72.30
21612;DHT22;47005;52.292;13.452;2022-07-03T14:04:37;25.30;73.30
21612;DHT22;47005;52.292;13.452;2022-07-03T14:07:03;25.30;69.40
21612;DHT22;47005;52.292;13.452;2022-07-03T14:09:29;25.30;68.40
21612;DHT22;47005;52.292;13.452;2022-07-03T14:11:55;25.30;69.80
21612;DHT22;47005;52.292;13.452;2022-07-03T14:14:20;25.30;70.50
21612;DHT22;47005;52.292;13.452;2022-07-03T14:16:46;25.30;70.50
21612;DHT22;47005;52.292;13.452;2022-07-03T14:19:11;25.30;71.00
21612;DHT22;47005;52.292;13.452;2022-07-03T14:21:37;25.30;71.50
21612;DHT22;47005;52.292;13.452;2022-07-03T14:24:03;25.30;72.40
21612;DHT22;47005;52.292;13.452;2022-07-03T14:26:28;25.30;72.30
21612;DHT22;47005;52.292;13.452;2022-07-03T14:29:13;25.20;72.40
21612;DHT22;47005;52.292;13.452;2022-07-03T14:31:57;25.20;71.90
21612;DHT22;47005;52.292;13.452;2022-07-03T14:34:41;25.20;71.50
21612;DHT22;47005;52.292;13.452;2022-07-03T14:37:07;25.20;71.40
21612;DHT22;47005;52.292;13.452;2022-07-03T14:39:34;25.10;70.10
21612;DHT22;47005;52.292;13.452;2022-07-03T14:42:00;25.10;67.40
21612;DHT22;47005;52.292;13.452;2022-07-03T14:44:25;25.20;68.20
21612;DHT22;47005;52.292;13.452;2022-07-03T14:46:54;25.20;65.90
21612;DHT22;47005;52.292;13.452;2022-07-03T14:49:20;25.20;63.40
21612;DHT22;47005;52.292;13.452;2022-07-03T14:51:46;25.30;65.10
21612;DHT22;47005;52.292;13.452;2022-07-03T14:54:16;25.30;66.00
21612;DHT22;47005;52.292;13.452;2022-07-03T14:56:47;25.30;69.00
21612;DHT22;47005;52.292;13.452;2022-07-03T14:59:27;25.30;69.50
21612;DHT22;47005;52.292;13.452;2022-07-03T15:02:00;25.40;71.10
21612;DHT22;47005;52.292;13.452;2022-07-03T15:07:14;25.40;71.90
21612;DHT22;47005;52.292;13.452;2022-07-03T15:09:49;25.50;71.80
21612;DHT22;47005;52.292;13.452;2022-07-03T15:12:18;25.50;72.00
21612;DHT22;47005;52.292;13.452;2022-07-03T15:14:54;25.50;72.80
21612;DHT22;47005;52.292;13.452;2022-07-03T15:17:23;25.50;73.10
21612;DHT22;47005;52.292;13.452;2022-07-03T15:19:50;25.50;72.30
21612;DHT22;47005;52.292;13.452;2022-07-03T15:22:22;25.50;71.50
21612;DHT22;47005;52.292;13.452;2022-07-03T15:24:50;25.50;70.70
21612;DHT22;47005;52.292;13.452;2022-07-03T15:27:20;25.50;71.70
21612;DHT22;47005;52.292;13.452;2022-07-03T15:29:46;25.50;72.10
21612;DHT22;47005;52.292;13.452;2022-07-03T15:32:12;25.50;72.60
21612;DHT22;47005;52.292;13.452;2022-07-03T15:34:39;25.50;72.10
21612;DHT22;47005;52.292;13.452;2022-07-03T15:46:11;25.50;72.00
21612;DHT22;47005;52.292;13.452;2022-07-03T15:51:42;25.50;72.70
21612;DHT22;47005;52.292;13.452;2022-07-03T15:54:13;25.50;73.10
21612;DHT22;47005;52.292;13.452;2022-07-03T15:56:50;25.50;74.00
21612;DHT22;47005;52.292;13.452;2022-07-03T15:59:20;25.70;73.90
21612;DHT22;47005;52.292;13.452;2022-07-03T16:01:52;25.70;73.90
21612;DHT22;47005;52.292;13.452;2022-07-03T16:05:00;25.80;73.60
21612;DHT22;47005;52.292;13.452;2022-07-03T16:07:28;25.80;73.80
21612;DHT22;47005;52.292;13.452;2022-07-03T16:09:55;25.90;75.40
21612;DHT22;47005;52.292;13.452;2022-07-03T16:12:21;26.00;75.20
21612;DHT22;47005;52.292;13.452;2022-07-03T16:14:48;26.00;75.60
21612;DHT22;47005;52.292;13.452;2022-07-03T16:17:16;26.10;75.60
21612;DHT22;47005;52.292;13.452;2022-07-03T16:19:44;26.10;76.50
21612;DHT22;47005;52.292;13.452;2022-07-03T16:22:11;26.20;76.30
21612;DHT22;47005;52.292;13.452;2022-07-03T16:24:38;26.20;75.80
21612;DHT22;47005;52.292;13.452;2022-07-03T16:27:04;26.20;73.80
21612;DHT22;47005;52.292;13.452;2022-07-03T16:29:30;26.20;72.50
21612;DHT22;47005;52.292;13.452;2022-07-03T16:31:55;26.20;72.60
21612;DHT22;47005;52.292;13.452;2022-07-03T16:34:25;26.20;71.70
21612;DHT22;47005;52.292;13.452;2022-07-03T16:36:55;26.30;70.50
21612;DHT22;47005;52.292;13.452;2022-07-03T16:39:37;26.30;70.90
21612;DHT22;47005;52.292;13.452;2022-07-03T16:42:05;26.40;71.60
21612;DHT22;47005;52.292;13.452;2022-07-03T16:44:37;26.50;71.80
21612;DHT22;47005;52.292;13.452;2022-07-03T16:47:04;26.60;71.00
21612;DHT22;47005;52.292;13.452;2022-07-03T16:49:37;26.80;71.10
21612;DHT22;47005;52.292;13.452;2022-07-03T16:52:07;27.20;72.70
21612;DHT22;47005;52.292;13.452;2022-07-03T16:54:34;27.50;73.00
21612;DHT22;47005;52.292;13.452;2022-07-03T16:57:05;27.90;72.80
21612;DHT22;47005;52.292;13.452;2022-07-03T16:59:31;28.20;71.30
21612;DHT22;47005;52.292;13.452;2022-07-03T17:01:58;28.40;69.70
21612;DHT22;47005;52.292;13.452;2022-07-03T17:04:27;28.50;69.10
21612;DHT22;47005;52.292;13.452;2022-07-03T17:06:54;28.50;69.20
21612;DHT22;47005;52.292;13.452;2022-07-03T17:09:23;28.50;68.80